To NAV CANADA Home Page Login to a new session Search on AWWS site Feedback and Comments Disclaimer Vers la page française équivalente Tips FAQ What's new on the site To the Forecasts and Observations / NOTAM section To "File a Flight Plan" website Publications and other links Update of the User's profile FIC Telephone Numbers My Weather Data Folder Route Weather Data Regional Weather Data Local Weather Data To the Forecasts and Observations / NOTAM section
Request Generated 04/20/2014 at 13:18:48 UTC . Weather information available at that time is displayed.

METAR/TAF

OTTAWA/MACDONALD-CARTIER INTL/ON    

METAR CYOW 201300Z 10006KT 15SM FEW140 SCT180 BKN210 05/M08 A3050 RMK
AC1AC4CI2 AC TR SLP331=
METAR CYOW 201200Z 09008KT 15SM FEW120 SCT180 BKN210 03/M09 A3049 RMK
AC1AC3CI1 SLP330=
METAR CYOW 201100Z 06004KT 15SM SCT120 M00/M08 A3048 RMK AC4 SLP327=

TAF CYOW 201138Z 2012/2112 06006KT P6SM SCT120
BECMG 2017/2019 20010KT
FM210500 20005KT P6SM OVC080
RMK NXT FCST BY 201500Z=
Your time UTC time
Weather data provided by Environment Canada and NAV CANADA